Ayr, ND (58007)

2:14 AM CDT on April 26, 2017 (GMT -0500)
Home of the Absaraka Crows | | Change Station
Active Advisory: Winter Weather Advisory

Elev 1066 ft 46.98 °N, 97.39 °W | Updated 1 second ago

Overcast
Overcast
31.1 °F
Feels Like 20 °F
N
17.4
Wind Variable Wind from NE
Gusts 19.0 mph

Today
High -- | Low -- °F
--% Chance of Precip.
Yesterday
High -- | Low -- °F
Precip. -- in
Pressure 29.82 in
Visibility 10.0 miles
Clouds Overcast 1100 ft
Windchill 20 °F
Dew Point 30 °F
Humidity 96%
Rainfall 0.02 in
Snow Depth Not available.
6:21 AM 8:34 PM
Waning Crescent, 0% visible
METAR KBAC 260655Z AUTO 02019G26KT 10SM -SN OVC011 M01/M01 A2982 RMK AO2
Pressure 29.82 in
Visibility 10.0 miles
Clouds Overcast 1100 ft
Windchill 20 °F
Dew Point 30 °F
Humidity 96%
Rainfall 0.02 in
Snow Depth Not available.
6:21 AM 8:34 PM
Waning Crescent, 0% visible
METAR KBAC 260655Z AUTO 02019G26KT 10SM -SN OVC011 M01/M01 A2982 RMK AO2

Get Your Daily Forecast Email!

Thanks for signing up!

Be on the lookout for a verification email in your inbox.

You'll start receiving severe weather alerts in your inbox..

×

10-Day Weather Forecast

Almanac

Astronomy

Apr. 26, 2017 Rise Set
Actual Time
Civil Twilight
Nautical Twilight
Astronomical Twilight
Moon
Length of Visible Light
Length of Day
Tomorrow will be .
, % of the Moon is Illuminated

Today's Extremes

State Highs State Lows

Community

WunderPhotos

WunderBlog® & News

Nearby

Air Quality

  Air Quality AQ Index Pollutant
Not available.

Snow Depth

Station Depth Elevation

Earthquake Activity

City Distance Mag. Time & Date
Minimum magnitude displayed is 2.5.

Coastal Water Temperatures

Place Temperature

Stations

Nearby Weather Stations

Station Location Temp. Windchill Dew Point Humidity Wind Precip. Elev Updated Type
                   

Watches & Warnings

Winter Weather Advisory
Issued: 9:38 PM CDT Apr. 25, 2017 – National Weather Service

... Winter Weather Advisory in effect until 7 PM CDT Wednesday...

The National Weather Service in Grand Forks has issued a Winter
Weather Advisory for snow, which is in effect until 7 PM CDT
Wednesday.

* Timing... snow will develop tonight. A brief wintry mix is
possible.

* Snow and accumulations... 3 to 5 inches.

* Winds / visibilities... look for reduced visibilities at times.

* Impacts... plan on slippery Road conditions... including during
the morning commute on Wednesday.

Precautionary/preparedness actions...

A Winter Weather Advisory means that periods of snow, sleet or
freezing rain will cause travel difficulties. Be prepared for
slippery roads and limited visibilities, and use caution while
driving. The latest Road conditions for the state you are calling
from can be obtained by calling 5 1 1.